sensor_id;sensor_type;location;lat;lon;timestamp;P1;durP1;ratioP1;P2;durP2;ratioP2
56297;SDS011;42208;6.376;-10.782;2022-12-29T00:00:59;265.23;;;98.88;;
56297;SDS011;42208;6.376;-10.782;2022-12-29T00:03:28;161.20;;;68.18;;
56297;SDS011;42208;6.376;-10.782;2022-12-29T00:05:57;142.63;;;53.65;;
56297;SDS011;42208;6.376;-10.782;2022-12-29T00:08:25;194.52;;;67.90;;
56297;SDS011;42208;6.376;-10.782;2022-12-29T00:10:53;238.23;;;86.88;;
56297;SDS011;42208;6.376;-10.782;2022-12-29T00:13:22;265.35;;;96.72;;
56297;SDS011;42208;6.376;-10.782;2022-12-29T00:15:50;343.63;;;126.30;;
56297;SDS011;42208;6.376;-10.782;2022-12-29T00:18:18;271.67;;;101.07;;
56297;SDS011;42208;6.376;-10.782;2022-12-29T00:20:47;129.48;;;51.53;;
56297;SDS011;42208;6.376;-10.782;2022-12-29T00:23:15;75.72;;;30.60;;
56297;SDS011;42208;6.376;-10.782;2022-12-29T00:25:44;94.20;;;31.80;;
56297;SDS011;42208;6.376;-10.782;2022-12-29T00:28:13;100.55;;;31.85;;
56297;SDS011;42208;6.376;-10.782;2022-12-29T00:30:43;72.82;;;29.23;;
56297;SDS011;42208;6.376;-10.782;2022-12-29T00:33:16;143.60;;;48.85;;
56297;SDS011;42208;6.376;-10.782;2022-12-29T00:35:47;214.90;;;70.90;;
56297;SDS011;42208;6.376;-10.782;2022-12-29T00:38:21;290.40;;;103.05;;
56297;SDS011;42208;6.376;-10.782;2022-12-29T00:40:49;296.20;;;105.70;;
56297;SDS011;42208;6.376;-10.782;2022-12-29T00:43:20;107.68;;;39.22;;
56297;SDS011;42208;6.376;-10.782;2022-12-29T00:45:49;85.28;;;32.53;;
56297;SDS011;42208;6.376;-10.782;2022-12-29T00:48:17;97.47;;;29.55;;
56297;SDS011;42208;6.376;-10.782;2022-12-29T00:50:46;101.25;;;34.97;;
56297;SDS011;42208;6.376;-10.782;2022-12-29T00:53:14;108.25;;;43.85;;
56297;SDS011;42208;6.376;-10.782;2022-12-29T00:55:44;106.63;;;44.70;;
56297;SDS011;42208;6.376;-10.782;2022-12-29T00:58:12;106.72;;;44.05;;
56297;SDS011;42208;6.376;-10.782;2022-12-29T01:00:40;138.32;;;49.80;;
56297;SDS011;42208;6.376;-10.782;2022-12-29T01:03:09;127.05;;;47.97;;
56297;SDS011;42208;6.376;-10.782;2022-12-29T01:05:37;104.28;;;41.42;;
56297;SDS011;42208;6.376;-10.782;2022-12-29T01:08:07;103.40;;;41.15;;
56297;SDS011;42208;6.376;-10.782;2022-12-29T01:10:35;134.43;;;53.38;;
56297;SDS011;42208;6.376;-10.782;2022-12-29T01:13:03;207.77;;;70.28;;
56297;SDS011;42208;6.376;-10.782;2022-12-29T01:15:32;242.25;;;84.65;;
56297;SDS011;42208;6.376;-10.782;2022-12-29T01:18:00;284.33;;;94.03;;
56297;SDS011;42208;6.376;-10.782;2022-12-29T01:20:29;182.18;;;67.22;;
56297;SDS011;42208;6.376;-10.782;2022-12-29T01:22:57;107.10;;;38.58;;
56297;SDS011;42208;6.376;-10.782;2022-12-29T01:25:26;82.63;;;29.70;;
56297;SDS011;42208;6.376;-10.782;2022-12-29T01:27:55;89.03;;;31.42;;
56297;SDS011;42208;6.376;-10.782;2022-12-29T01:30:25;86.22;;;30.92;;
56297;SDS011;42208;6.376;-10.782;2022-12-29T01:32:53;86.18;;;29.33;;
56297;SDS011;42208;6.376;-10.782;2022-12-29T01:35:21;92.28;;;34.80;;
56297;SDS011;42208;6.376;-10.782;2022-12-29T01:37:50;126.10;;;52.15;;
56297;SDS011;42208;6.376;-10.782;2022-12-29T01:40:19;142.80;;;54.60;;
56297;SDS011;42208;6.376;-10.782;2022-12-29T01:42:48;146.35;;;52.80;;
56297;SDS011;42208;6.376;-10.782;2022-12-29T01:45:17;202.30;;;75.43;;
56297;SDS011;42208;6.376;-10.782;2022-12-29T01:47:55;144.80;;;49.97;;
56297;SDS011;42208;6.376;-10.782;2022-12-29T01:50:30;93.25;;;37.25;;
56297;SDS011;42208;6.376;-10.782;2022-12-29T01:55:48;82.72;;;28.75;;
56297;SDS011;42208;6.376;-10.782;2022-12-29T01:58:22;135.40;;;59.33;;
56297;SDS011;42208;6.376;-10.782;2022-12-29T02:00:53;132.80;;;59.28;;
56297;SDS011;42208;6.376;-10.782;2022-12-29T02:03:22;119.22;;;55.22;;
56297;SDS011;42208;6.376;-10.782;2022-12-29T02:08:55;128.30;;;50.78;;
56297;SDS011;42208;6.376;-10.782;2022-12-29T02:11:25;107.93;;;47.60;;
56297;SDS011;42208;6.376;-10.782;2022-12-29T02:13:56;109.47;;;48.17;;
56297;SDS011;42208;6.376;-10.782;2022-12-29T02:27:48;115.78;;;48.28;;
56297;SDS011;42208;6.376;-10.782;2022-12-29T02:30:45;119.15;;;45.30;;
56297;SDS011;42208;6.376;-10.782;2022-12-29T02:41:19;100.78;;;41.72;;
56297;SDS011;42208;6.376;-10.782;2022-12-29T02:53:08;96.13;;;43.05;;
56297;SDS011;42208;6.376;-10.782;2022-12-29T02:55:47;106.00;;;45.25;;
56297;SDS011;42208;6.376;-10.782;2022-12-29T02:58:18;97.80;;;42.33;;
56297;SDS011;42208;6.376;-10.782;2022-12-29T03:09:17;190.52;;;81.72;;
56297;SDS011;42208;6.376;-10.782;2022-12-29T03:18:19;112.88;;;45.50;;
56297;SDS011;42208;6.376;-10.782;2022-12-29T03:23:24;83.80;;;39.78;;
56297;SDS011;42208;6.376;-10.782;2022-12-29T03:25:55;101.97;;;45.42;;
56297;SDS011;42208;6.376;-10.782;2022-12-29T03:30:57;90.05;;;45.20;;
56297;SDS011;42208;6.376;-10.782;2022-12-29T03:33:28;122.70;;;53.20;;
56297;SDS011;42208;6.376;-10.782;2022-12-29T03:36:01;129.77;;;56.35;;
56297;SDS011;42208;6.376;-10.782;2022-12-29T03:41:04;168.77;;;67.68;;
56297;SDS011;42208;6.376;-10.782;2022-12-29T03:43:38;161.90;;;66.25;;
56297;SDS011;42208;6.376;-10.782;2022-12-29T03:46:07;190.25;;;69.43;;
56297;SDS011;42208;6.376;-10.782;2022-12-29T03:48:37;172.85;;;66.32;;
56297;SDS011;42208;6.376;-10.782;2022-12-29T03:51:06;115.43;;;48.80;;
56297;SDS011;42208;6.376;-10.782;2022-12-29T03:53:35;98.15;;;44.17;;
56297;SDS011;42208;6.376;-10.782;2022-12-29T03:56:03;90.82;;;41.90;;
56297;SDS011;42208;6.376;-10.782;2022-12-29T03:58:32;86.93;;;36.83;;
56297;SDS011;42208;6.376;-10.782;2022-12-29T04:01:27;91.80;;;42.20;;
56297;SDS011;42208;6.376;-10.782;2022-12-29T04:03:55;100.68;;;46.63;;
56297;SDS011;42208;6.376;-10.782;2022-12-29T04:06:24;113.47;;;49.80;;
56297;SDS011;42208;6.376;-10.782;2022-12-29T04:08:59;103.68;;;44.05;;
56297;SDS011;42208;6.376;-10.782;2022-12-29T04:14:02;87.78;;;40.03;;
56297;SDS011;42208;6.376;-10.782;2022-12-29T04:16:32;86.95;;;41.30;;
56297;SDS011;42208;6.376;-10.782;2022-12-29T04:19:03;88.80;;;40.45;;
56297;SDS011;42208;6.376;-10.782;2022-12-29T04:21:32;91.47;;;40.85;;
56297;SDS011;42208;6.376;-10.782;2022-12-29T04:24:00;91.70;;;40.78;;
56297;SDS011;42208;6.376;-10.782;2022-12-29T04:26:30;90.53;;;40.60;;
56297;SDS011;42208;6.376;-10.782;2022-12-29T04:29:19;93.60;;;39.55;;
56297;SDS011;42208;6.376;-10.782;2022-12-29T04:32:10;86.70;;;42.70;;
56297;SDS011;42208;6.376;-10.782;2022-12-29T04:34:44;88.07;;;41.65;;
56297;SDS011;42208;6.376;-10.782;2022-12-29T04:37:12;81.05;;;38.97;;
56297;SDS011;42208;6.376;-10.782;2022-12-29T04:39:41;83.85;;;40.83;;
56297;SDS011;42208;6.376;-10.782;2022-12-29T04:42:09;79.32;;;38.97;;
56297;SDS011;42208;6.376;-10.782;2022-12-29T04:44:38;87.88;;;41.88;;
56297;SDS011;42208;6.376;-10.782;2022-12-29T04:47:31;74.57;;;41.45;;
56297;SDS011;42208;6.376;-10.782;2022-12-29T04:50:18;88.07;;;42.50;;
56297;SDS011;42208;6.376;-10.782;2022-12-29T04:53:07;85.68;;;42.00;;
56297;SDS011;42208;6.376;-10.782;2022-12-29T04:55:36;86.72;;;44.15;;
56297;SDS011;42208;6.376;-10.782;2022-12-29T04:58:05;101.18;;;45.55;;
56297;SDS011;42208;6.376;-10.782;2022-12-29T05:00:34;94.47;;;49.10;;
56297;SDS011;42208;6.376;-10.782;2022-12-29T05:03:02;95.60;;;47.78;;
56297;SDS011;42208;6.376;-10.782;2022-12-29T05:05:31;100.10;;;47.90;;
56297;SDS011;42208;6.376;-10.782;2022-12-29T05:08:00;118.60;;;50.30;;
56297;SDS011;42208;6.376;-10.782;2022-12-29T05:10:29;103.78;;;48.45;;
56297;SDS011;42208;6.376;-10.782;2022-12-29T05:13:02;107.93;;;47.70;;
56297;SDS011;42208;6.376;-10.782;2022-12-29T05:15:31;100.88;;;49.67;;
56297;SDS011;42208;6.376;-10.782;2022-12-29T05:17:59;102.97;;;49.95;;
56297;SDS011;42208;6.376;-10.782;2022-12-29T05:20:28;113.80;;;50.50;;
56297;SDS011;42208;6.376;-10.782;2022-12-29T05:22:57;105.30;;;49.33;;
56297;SDS011;42208;6.376;-10.782;2022-12-29T05:25:26;105.25;;;50.63;;
56297;SDS011;42208;6.376;-10.782;2022-12-29T05:28:13;122.72;;;52.85;;
56297;SDS011;42208;6.376;-10.782;2022-12-29T05:30:49;112.55;;;52.17;;
56297;SDS011;42208;6.376;-10.782;2022-12-29T05:33:18;102.07;;;47.38;;
56297;SDS011;42208;6.376;-10.782;2022-12-29T05:35:49;104.82;;;46.67;;
56297;SDS011;42208;6.376;-10.782;2022-12-29T05:38:18;84.80;;;44.90;;
56297;SDS011;42208;6.376;-10.782;2022-12-29T05:40:46;99.70;;;47.03;;
56297;SDS011;42208;6.376;-10.782;2022-12-29T05:43:35;102.85;;;45.13;;
56297;SDS011;42208;6.376;-10.782;2022-12-29T05:46:26;94.65;;;46.00;;
56297;SDS011;42208;6.376;-10.782;2022-12-29T05:49:17;122.93;;;52.42;;
56297;SDS011;42208;6.376;-10.782;2022-12-29T05:52:00;101.47;;;45.30;;
56297;SDS011;42208;6.376;-10.782;2022-12-29T05:54:28;85.88;;;35.15;;
56297;SDS011;42208;6.376;-10.782;2022-12-29T05:56:57;56.95;;;29.65;;
56297;SDS011;42208;6.376;-10.782;2022-12-29T05:59:25;57.00;;;27.95;;
56297;SDS011;42208;6.376;-10.782;2022-12-29T06:01:54;56.85;;;26.80;;
56297;SDS011;42208;6.376;-10.782;2022-12-29T06:04:22;47.33;;;26.70;;
56297;SDS011;42208;6.376;-10.782;2022-12-29T06:06:51;53.15;;;26.65;;
56297;SDS011;42208;6.376;-10.782;2022-12-29T06:09:32;59.50;;;28.52;;
56297;SDS011;42208;6.376;-10.782;2022-12-29T06:12:03;50.00;;;23.98;;
56297;SDS011;42208;6.376;-10.782;2022-12-29T06:14:32;51.50;;;25.27;;
56297;SDS011;42208;6.376;-10.782;2022-12-29T06:17:02;62.42;;;27.52;;
56297;SDS011;42208;6.376;-10.782;2022-12-29T06:19:32;53.50;;;26.40;;
56297;SDS011;42208;6.376;-10.782;2022-12-29T06:22:01;51.85;;;26.35;;
56297;SDS011;42208;6.376;-10.782;2022-12-29T06:24:32;53.07;;;26.97;;
56297;SDS011;42208;6.376;-10.782;2022-12-29T06:27:01;59.75;;;29.08;;
56297;SDS011;42208;6.376;-10.782;2022-12-29T06:29:30;63.33;;;27.90;;
56297;SDS011;42208;6.376;-10.782;2022-12-29T06:31:58;56.97;;;27.85;;
56297;SDS011;42208;6.376;-10.782;2022-12-29T06:34:30;58.78;;;27.42;;
56297;SDS011;42208;6.376;-10.782;2022-12-29T06:36:58;70.78;;;27.83;;
56297;SDS011;42208;6.376;-10.782;2022-12-29T06:39:27;55.35;;;27.08;;
56297;SDS011;42208;6.376;-10.782;2022-12-29T06:42:05;62.58;;;28.77;;
56297;SDS011;42208;6.376;-10.782;2022-12-29T06:44:55;53.08;;;26.20;;
56297;SDS011;42208;6.376;-10.782;2022-12-29T06:47:23;69.53;;;26.95;;
56297;SDS011;42208;6.376;-10.782;2022-12-29T06:49:52;61.22;;;29.92;;
56297;SDS011;42208;6.376;-10.782;2022-12-29T06:52:20;71.88;;;35.33;;
56297;SDS011;42208;6.376;-10.782;2022-12-29T06:54:48;78.43;;;36.67;;
56297;SDS011;42208;6.376;-10.782;2022-12-29T06:57:17;74.38;;;37.95;;
56297;SDS011;42208;6.376;-10.782;2022-12-29T06:59:45;89.43;;;37.33;;
56297;SDS011;42208;6.376;-10.782;2022-12-29T07:02:13;76.20;;;34.28;;
56297;SDS011;42208;6.376;-10.782;2022-12-29T07:04:42;80.15;;;34.38;;
56297;SDS011;42208;6.376;-10.782;2022-12-29T07:07:11;78.53;;;33.45;;
56297;SDS011;42208;6.376;-10.782;2022-12-29T07:09:39;75.05;;;39.90;;
56297;SDS011;42208;6.376;-10.782;2022-12-29T07:12:07;102.22;;;45.05;;
56297;SDS011;42208;6.376;-10.782;2022-12-29T07:14:35;99.30;;;43.05;;
56297;SDS011;42208;6.376;-10.782;2022-12-29T07:17:09;94.97;;;40.47;;
56297;SDS011;42208;6.376;-10.782;2022-12-29T07:19:37;83.20;;;39.75;;
56297;SDS011;42208;6.376;-10.782;2022-12-29T07:22:06;87.45;;;39.47;;
56297;SDS011;42208;6.376;-10.782;2022-12-29T07:24:34;67.95;;;33.65;;
56297;SDS011;42208;6.376;-10.782;2022-12-29T07:27:02;72.47;;;33.78;;
56297;SDS011;42208;6.376;-10.782;2022-12-29T07:29:31;75.80;;;34.00;;
56297;SDS011;42208;6.376;-10.782;2022-12-29T07:31:59;82.38;;;35.80;;
56297;SDS011;42208;6.376;-10.782;2022-12-29T07:34:27;107.82;;;40.20;;
56297;SDS011;42208;6.376;-10.782;2022-12-29T07:36:56;78.50;;;37.10;;
56297;SDS011;42208;6.376;-10.782;2022-12-29T07:39:24;76.03;;;37.33;;
56297;SDS011;42208;6.376;-10.782;2022-12-29T07:41:52;75.53;;;32.83;;
56297;SDS011;42208;6.376;-10.782;2022-12-29T07:44:36;53.63;;;27.45;;
56297;SDS011;42208;6.376;-10.782;2022-12-29T07:47:22;65.63;;;30.00;;
56297;SDS011;42208;6.376;-10.782;2022-12-29T07:49:51;60.58;;;31.35;;
56297;SDS011;42208;6.376;-10.782;2022-12-29T07:52:19;66.43;;;32.53;;
56297;SDS011;42208;6.376;-10.782;2022-12-29T07:54:47;65.10;;;33.05;;
56297;SDS011;42208;6.376;-10.782;2022-12-29T07:57:16;75.93;;;36.38;;
56297;SDS011;42208;6.376;-10.782;2022-12-29T07:59:44;84.97;;;41.85;;
56297;SDS011;42208;6.376;-10.782;2022-12-29T08:02:12;115.25;;;55.70;;
56297;SDS011;42208;6.376;-10.782;2022-12-29T08:04:41;147.45;;;73.57;;
56297;SDS011;42208;6.376;-10.782;2022-12-29T08:07:09;153.00;;;89.72;;
56297;SDS011;42208;6.376;-10.782;2022-12-29T08:09:37;160.38;;;83.10;;
56297;SDS011;42208;6.376;-10.782;2022-12-29T08:12:07;135.90;;;66.65;;
56297;SDS011;42208;6.376;-10.782;2022-12-29T08:14:37;104.35;;;50.78;;
56297;SDS011;42208;6.376;-10.782;2022-12-29T08:17:06;113.10;;;65.40;;
56297;SDS011;42208;6.376;-10.782;2022-12-29T08:19:34;120.65;;;64.85;;
56297;SDS011;42208;6.376;-10.782;2022-12-29T08:22:03;124.60;;;64.25;;
56297;SDS011;42208;6.376;-10.782;2022-12-29T08:24:31;106.07;;;49.33;;
56297;SDS011;42208;6.376;-10.782;2022-12-29T08:26:59;73.68;;;28.98;;
56297;SDS011;42208;6.376;-10.782;2022-12-29T08:29:41;54.85;;;27.00;;
56297;SDS011;42208;6.376;-10.782;2022-12-29T08:32:10;62.03;;;25.55;;
56297;SDS011;42208;6.376;-10.782;2022-12-29T08:34:39;51.72;;;25.15;;
56297;SDS011;42208;6.376;-10.782;2022-12-29T08:37:07;64.57;;;29.65;;
56297;SDS011;42208;6.376;-10.782;2022-12-29T08:39:35;71.75;;;31.08;;
56297;SDS011;42208;6.376;-10.782;2022-12-29T08:42:04;92.50;;;38.47;;
56297;SDS011;42208;6.376;-10.782;2022-12-29T08:44:32;87.00;;;38.85;;
56297;SDS011;42208;6.376;-10.782;2022-12-29T08:47:00;91.07;;;37.90;;
56297;SDS011;42208;6.376;-10.782;2022-12-29T08:49:29;74.05;;;34.65;;
56297;SDS011;42208;6.376;-10.782;2022-12-29T08:51:57;86.45;;;39.50;;
56297;SDS011;42208;6.376;-10.782;2022-12-29T08:54:25;73.38;;;33.17;;
56297;SDS011;42208;6.376;-10.782;2022-12-29T08:56:53;72.28;;;33.60;;
56297;SDS011;42208;6.376;-10.782;2022-12-29T08:59:30;85.28;;;33.78;;
56297;SDS011;42208;6.376;-10.782;2022-12-29T09:01:59;71.30;;;28.65;;
56297;SDS011;42208;6.376;-10.782;2022-12-29T09:04:27;89.60;;;30.80;;
56297;SDS011;42208;6.376;-10.782;2022-12-29T09:06:56;71.30;;;29.90;;
56297;SDS011;42208;6.376;-10.782;2022-12-29T09:09:24;82.80;;;29.13;;
56297;SDS011;42208;6.376;-10.782;2022-12-29T09:11:53;79.30;;;28.02;;
56297;SDS011;42208;6.376;-10.782;2022-12-29T09:14:21;65.55;;;27.50;;
56297;SDS011;42208;6.376;-10.782;2022-12-29T09:16:53;56.72;;;24.75;;
56297;SDS011;42208;6.376;-10.782;2022-12-29T09:19:21;70.55;;;27.25;;
56297;SDS011;42208;6.376;-10.782;2022-12-29T09:21:50;57.70;;;24.13;;
56297;SDS011;42208;6.376;-10.782;2022-12-29T09:24:18;68.75;;;26.52;;
56297;SDS011;42208;6.376;-10.782;2022-12-29T09:26:46;67.72;;;25.02;;
56297;SDS011;42208;6.376;-10.782;2022-12-29T09:29:14;56.92;;;24.85;;
56297;SDS011;42208;6.376;-10.782;2022-12-29T09:31:43;63.55;;;25.48;;
56297;SDS011;42208;6.376;-10.782;2022-12-29T09:34:11;72.90;;;27.05;;
56297;SDS011;42208;6.376;-10.782;2022-12-29T09:36:39;92.43;;;30.02;;
56297;SDS011;42208;6.376;-10.782;2022-12-29T09:39:08;85.82;;;30.38;;
56297;SDS011;42208;6.376;-10.782;2022-12-29T09:42:00;60.55;;;22.92;;
56297;SDS011;42208;6.376;-10.782;2022-12-29T09:47:17;66.93;;;24.88;;
56297;SDS011;42208;6.376;-10.782;2022-12-29T09:49:54;54.50;;;24.40;;
56297;SDS011;42208;6.376;-10.782;2022-12-29T09:52:32;82.88;;;26.05;;
56297;SDS011;42208;6.376;-10.782;2022-12-29T09:55:10;110.90;;;32.78;;
56297;SDS011;42208;6.376;-10.782;2022-12-29T09:57:54;127.15;;;38.00;;
56297;SDS011;42208;6.376;-10.782;2022-12-29T10:03:13;88.15;;;40.72;;
56297;SDS011;42208;6.376;-10.782;2022-12-29T10:14:14;80.70;;;31.67;;
56297;SDS011;42208;6.376;-10.782;2022-12-29T10:25:28;75.93;;;30.45;;
56297;SDS011;42208;6.376;-10.782;2022-12-29T10:31:16;81.40;;;26.00;;
56297;SDS011;42208;6.376;-10.782;2022-12-29T10:33:49;57.72;;;21.30;;
56297;SDS011;42208;6.376;-10.782;2022-12-29T10:36:34;56.92;;;21.45;;
56297;SDS011;42208;6.376;-10.782;2022-12-29T10:41:51;62.92;;;22.33;;
56297;SDS011;42208;6.376;-10.782;2022-12-29T10:44:29;59.97;;;21.60;;
56297;SDS011;42208;6.376;-10.782;2022-12-29T10:46:59;78.20;;;22.88;;
56297;SDS011;42208;6.376;-10.782;2022-12-29T10:49:39;50.78;;;22.17;;
56297;SDS011;42208;6.376;-10.782;2022-12-29T10:52:09;62.90;;;23.02;;
56297;SDS011;42208;6.376;-10.782;2022-12-29T10:54:42;54.58;;;20.75;;
56297;SDS011;42208;6.376;-10.782;2022-12-29T10:57:45;61.10;;;21.60;;
56297;SDS011;42208;6.376;-10.782;2022-12-29T11:00:18;40.92;;;20.73;;
56297;SDS011;42208;6.376;-10.782;2022-12-29T11:08:38;65.63;;;21.40;;
56297;SDS011;42208;6.376;-10.782;2022-12-29T11:11:14;67.85;;;23.85;;
56297;SDS011;42208;6.376;-10.782;2022-12-29T11:14:14;63.33;;;21.92;;
56297;SDS011;42208;6.376;-10.782;2022-12-29T11:17:03;65.53;;;23.55;;
56297;SDS011;42208;6.376;-10.782;2022-12-29T11:19:32;60.72;;;22.63;;
56297;SDS011;42208;6.376;-10.782;2022-12-29T11:22:27;50.78;;;19.55;;
56297;SDS011;42208;6.376;-10.782;2022-12-29T11:25:05;51.83;;;21.90;;
56297;SDS011;42208;6.376;-10.782;2022-12-29T11:27:38;76.15;;;22.80;;
56297;SDS011;42208;6.376;-10.782;2022-12-29T11:30:21;60.33;;;21.35;;
56297;SDS011;42208;6.376;-10.782;2022-12-29T11:32:52;56.28;;;19.38;;
56297;SDS011;42208;6.376;-10.782;2022-12-29T11:35:32;57.63;;;20.45;;
56297;SDS011;42208;6.376;-10.782;2022-12-29T11:38:16;66.07;;;19.73;;
56297;SDS011;42208;6.376;-10.782;2022-12-29T11:40:51;58.78;;;18.73;;
56297;SDS011;42208;6.376;-10.782;2022-12-29T11:43:41;58.83;;;18.88;;
56297;SDS011;42208;6.376;-10.782;2022-12-29T11:46:20;67.90;;;20.98;;
56297;SDS011;42208;6.376;-10.782;2022-12-29T11:48:53;68.25;;;21.80;;
56297;SDS011;42208;6.376;-10.782;2022-12-29T11:51:27;65.05;;;20.75;;
56297;SDS011;42208;6.376;-10.782;2022-12-29T11:54:09;49.15;;;18.40;;
56297;SDS011;42208;6.376;-10.782;2022-12-29T11:57:14;60.20;;;17.98;;
56297;SDS011;42208;6.376;-10.782;2022-12-29T11:59:50;57.67;;;19.25;;
56297;SDS011;42208;6.376;-10.782;2022-12-29T12:04:53;65.70;;;19.00;;
56297;SDS011;42208;6.376;-10.782;2022-12-29T12:07:40;58.22;;;20.85;;
56297;SDS011;42208;6.376;-10.782;2022-12-29T12:10:16;55.75;;;20.27;;
56297;SDS011;42208;6.376;-10.782;2022-12-29T12:15:52;61.47;;;20.17;;
56297;SDS011;42208;6.376;-10.782;2022-12-29T12:21:05;52.00;;;18.98;;
56297;SDS011;42208;6.376;-10.782;2022-12-29T12:29:19;51.90;;;19.48;;
56297;SDS011;42208;6.376;-10.782;2022-12-29T12:35:07;77.95;;;22.33;;
56297;SDS011;42208;6.376;-10.782;2022-12-29T12:37:52;57.35;;;18.65;;
56297;SDS011;42208;6.376;-10.782;2022-12-29T12:40:53;68.38;;;19.95;;
56297;SDS011;42208;6.376;-10.782;2022-12-29T12:54:25;63.22;;;21.88;;
56297;SDS011;42208;6.376;-10.782;2022-12-29T13:00:24;88.22;;;31.55;;
56297;SDS011;42208;6.376;-10.782;2022-12-29T13:03:17;59.90;;;19.48;;
56297;SDS011;42208;6.376;-10.782;2022-12-29T13:06:13;59.75;;;17.67;;
56297;SDS011;42208;6.376;-10.782;2022-12-29T13:22:32;66.63;;;21.92;;
56297;SDS011;42208;6.376;-10.782;2022-12-29T13:25:15;70.32;;;23.25;;
56297;SDS011;42208;6.376;-10.782;2022-12-29T13:28:10;62.22;;;20.40;;
56297;SDS011;42208;6.376;-10.782;2022-12-29T13:38:48;49.50;;;17.58;;
56297;SDS011;42208;6.376;-10.782;2022-12-29T13:41:42;67.35;;;20.48;;
56297;SDS011;42208;6.376;-10.782;2022-12-29T13:44:18;62.78;;;19.08;;
56297;SDS011;42208;6.376;-10.782;2022-12-29T13:46:56;65.05;;;21.33;;
56297;SDS011;42208;6.376;-10.782;2022-12-29T13:49:28;65.28;;;24.65;;
56297;SDS011;42208;6.376;-10.782;2022-12-29T13:51:58;45.28;;;19.38;;
56297;SDS011;42208;6.376;-10.782;2022-12-29T14:00:26;61.15;;;18.88;;
56297;SDS011;42208;6.376;-10.782;2022-12-29T14:06:12;76.75;;;22.10;;
56297;SDS011;42208;6.376;-10.782;2022-12-29T14:08:44;69.72;;;21.27;;
56297;SDS011;42208;6.376;-10.782;2022-12-29T14:11:14;83.97;;;27.13;;
56297;SDS011;42208;6.376;-10.782;2022-12-29T14:13:45;80.28;;;27.77;;
56297;SDS011;42208;6.376;-10.782;2022-12-29T14:16:33;76.10;;;22.90;;
56297;SDS011;42208;6.376;-10.782;2022-12-29T14:27:51;64.18;;;23.33;;
56297;SDS011;42208;6.376;-10.782;2022-12-29T14:29:49;69.63;;;21.13;;
56297;SDS011;42208;6.376;-10.782;2022-12-29T14:34:59;50.80;;;18.45;;
56297;SDS011;42208;6.376;-10.782;2022-12-29T14:37:48;81.22;;;26.08;;
56297;SDS011;42208;6.376;-10.782;2022-12-29T14:40:33;49.60;;;17.92;;
56297;SDS011;42208;6.376;-10.782;2022-12-29T14:43:02;77.85;;;25.40;;
56297;SDS011;42208;6.376;-10.782;2022-12-29T14:46:00;62.42;;;19.58;;
56297;SDS011;42208;6.376;-10.782;2022-12-29T14:48:37;80.63;;;18.98;;
56297;SDS011;42208;6.376;-10.782;2022-12-29T14:51:17;67.75;;;16.67;;
56297;SDS011;42208;6.376;-10.782;2022-12-29T14:53:50;67.35;;;18.42;;
56297;SDS011;42208;6.376;-10.782;2022-12-29T14:56:20;62.67;;;19.95;;
56297;SDS011;42208;6.376;-10.782;2022-12-29T14:58:54;76.93;;;19.23;;
56297;SDS011;42208;6.376;-10.782;2022-12-29T15:04:05;186.00;;;94.47;;
56297;SDS011;42208;6.376;-10.782;2022-12-29T15:06:49;128.95;;;43.38;;
56297;SDS011;42208;6.376;-10.782;2022-12-29T15:09:29;95.30;;;28.25;;
56297;SDS011;42208;6.376;-10.782;2022-12-29T15:12:05;111.65;;;41.15;;
56297;SDS011;42208;6.376;-10.782;2022-12-29T15:14:56;379.45;;;163.68;;
56297;SDS011;42208;6.376;-10.782;2022-12-29T15:17:27;240.70;;;96.95;;
56297;SDS011;42208;6.376;-10.782;2022-12-29T15:19:57;242.70;;;108.55;;
56297;SDS011;42208;6.376;-10.782;2022-12-29T15:22:27;367.85;;;176.57;;
56297;SDS011;42208;6.376;-10.782;2022-12-29T15:24:57;167.25;;;65.72;;
56297;SDS011;42208;6.376;-10.782;2022-12-29T15:27:26;125.68;;;44.78;;
56297;SDS011;42208;6.376;-10.782;2022-12-29T15:29:58;181.57;;;75.00;;
56297;SDS011;42208;6.376;-10.782;2022-12-29T15:32:38;96.70;;;31.88;;
56297;SDS011;42208;6.376;-10.782;2022-12-29T15:35:26;82.35;;;21.90;;
56297;SDS011;42208;6.376;-10.782;2022-12-29T15:37:58;69.28;;;19.70;;
56297;SDS011;42208;6.376;-10.782;2022-12-29T15:40:31;83.80;;;22.00;;
56297;SDS011;42208;6.376;-10.782;2022-12-29T15:45:51;77.93;;;23.10;;
56297;SDS011;42208;6.376;-10.782;2022-12-29T15:48:23;96.22;;;35.50;;
56297;SDS011;42208;6.376;-10.782;2022-12-29T15:50:52;89.05;;;28.90;;
56297;SDS011;42208;6.376;-10.782;2022-12-29T15:53:22;254.80;;;114.90;;
56297;SDS011;42208;6.376;-10.782;2022-12-29T15:56:01;159.00;;;51.30;;
56297;SDS011;42208;6.376;-10.782;2022-12-29T15:58:39;76.65;;;21.42;;
56297;SDS011;42208;6.376;-10.782;2022-12-29T16:04:04;249.15;;;95.45;;
56297;SDS011;42208;6.376;-10.782;2022-12-29T16:09:05;73.57;;;21.38;;
56297;SDS011;42208;6.376;-10.782;2022-12-29T16:11:45;106.47;;;30.55;;
56297;SDS011;42208;6.376;-10.782;2022-12-29T16:14:18;83.35;;;27.00;;
56297;SDS011;42208;6.376;-10.782;2022-12-29T16:16:51;57.97;;;18.27;;
56297;SDS011;42208;6.376;-10.782;2022-12-29T16:21:57;85.55;;;28.23;;
56297;SDS011;42208;6.376;-10.782;2022-12-29T16:24:30;151.93;;;58.00;;
56297;SDS011;42208;6.376;-10.782;2022-12-29T16:27:06;190.70;;;73.05;;
56297;SDS011;42208;6.376;-10.782;2022-12-29T16:29:37;138.80;;;51.47;;
56297;SDS011;42208;6.376;-10.782;2022-12-29T16:32:26;84.80;;;33.90;;
56297;SDS011;42208;6.376;-10.782;2022-12-29T16:38:22;180.13;;;77.47;;
56297;SDS011;42208;6.376;-10.782;2022-12-29T16:43:27;63.50;;;18.40;;
56297;SDS011;42208;6.376;-10.782;2022-12-29T16:48:26;70.95;;;19.50;;
56297;SDS011;42208;6.376;-10.782;2022-12-29T16:53:50;63.00;;;20.80;;
56297;SDS011;42208;6.376;-10.782;2022-12-29T16:56:24;129.95;;;43.22;;
56297;SDS011;42208;6.376;-10.782;2022-12-29T16:59:00;76.72;;;22.77;;
56297;SDS011;42208;6.376;-10.782;2022-12-29T17:01:37;67.53;;;18.98;;
56297;SDS011;42208;6.376;-10.782;2022-12-29T17:04:10;105.05;;;34.72;;
56297;SDS011;42208;6.376;-10.782;2022-12-29T17:06:40;65.20;;;25.20;;
56297;SDS011;42208;6.376;-10.782;2022-12-29T17:11:48;157.13;;;45.60;;
56297;SDS011;42208;6.376;-10.782;2022-12-29T17:19:52;62.20;;;20.73;;
56297;SDS011;42208;6.376;-10.782;2022-12-29T17:22:26;82.38;;;26.77;;
56297;SDS011;42208;6.376;-10.782;2022-12-29T17:24:56;133.77;;;46.40;;
56297;SDS011;42208;6.376;-10.782;2022-12-29T17:27:30;71.07;;;29.52;;
56297;SDS011;42208;6.376;-10.782;2022-12-29T17:30:02;60.95;;;20.27;;
56297;SDS011;42208;6.376;-10.782;2022-12-29T17:32:39;65.03;;;22.92;;
56297;SDS011;42208;6.376;-10.782;2022-12-29T17:35:13;150.25;;;56.00;;
56297;SDS011;42208;6.376;-10.782;2022-12-29T17:37:42;121.47;;;45.17;;
56297;SDS011;42208;6.376;-10.782;2022-12-29T17:40:15;80.60;;;34.53;;
56297;SDS011;42208;6.376;-10.782;2022-12-29T17:42:46;69.70;;;25.38;;
56297;SDS011;42208;6.376;-10.782;2022-12-29T17:45:22;68.18;;;22.05;;
56297;SDS011;42208;6.376;-10.782;2022-12-29T17:47:55;68.07;;;23.75;;
56297;SDS011;42208;6.376;-10.782;2022-12-29T17:50:25;70.90;;;24.75;;
56297;SDS011;42208;6.376;-10.782;2022-12-29T17:52:55;55.13;;;24.35;;
56297;SDS011;42208;6.376;-10.782;2022-12-29T17:55:27;79.95;;;28.25;;
56297;SDS011;42208;6.376;-10.782;2022-12-29T17:58:37;68.28;;;27.48;;